Sulkendrup Airport

DK-0029 · 南丹麦大区, 丹麦

使用的TAF站离机场有32 km的距离
2024年5月20日 14:002024年5月20日 18:00有效
时间
星期一
14:00
>40%
星期一
15:00
>40%
星期一
16:00
>40%
星期一
17:00
>40%
代码
VFR
VFR
VFR
VFR
天气
几云
几云
几云
几云
能见度
10 km+
10 km+
10 km+
10 km+
天花板
-
-
-
-
080°
080°
080°
080°
080°
080°
080°
080°
速度
8 kt
8 kt
8 kt
8 kt
阵风
温度/星期日

原版的

TAF EKOD 201123Z 2012/2016 08008KT 9999 FEW040
TEMPO 2012/2016 FEW050CB

TAF Sulkendrup Airport

Sulkendrup Airport是,丹麦中的小机场。 该机场位于纬度55,28368和经度10,71398。 该机场有一条跑道: 8/26. 这个机场没有ICAO代码,我们使用DK-0029作为参考。 机场在Kobenhavn FIR中。

该航空气象观测是针对Odense Airport在2024年5月20日 13:23, 当地时间进行的。 从2024年5月20日 14:00到2024年5月20日 18:00, 当地时间有效.

预报

  • 在星期一 14:00和18:00之间

    • 风: 风来自080°方向,速度为8 kt。
    • 能见度: 10 km 或者更多
    • 乌云: 几云在4.000 ft的高度.
  • 暂时在星期一 14:00和18:00之间

    • 乌云: 几云 积雨云在5.000 ft的高度.

白天

今天,太阳从04:58升起,在21:29降落。 这适用于Sulkendrup Airport,世界夏令时可能有所不同。 当地时间与世界标准时间之间的时差为+2 小时。 夏令时目前正在进行中。

报告变更